Weather at Traill Southeast Airport

Public forecast

Using degrees Celsius for public forecast. Weather courtesy of forecast.io.

Closest aviation weather report (METAR) to Traill Southeast Airport

Closest report is Rosario Islas Malvinas International Airport, 74.7 nm (138.4 km) SE.

2024/07/16 20:00 (retrieved 15 minutes ago)

SAAR 162000Z 07005KT CAVOK 17/09 Q1024

Closest aviation forecast (TAF) to Traill Southeast Airport

Closest forecast is Rosario Islas Malvinas International Airport, 74.7 nm (138.4 km) SE.

2024/07/16 18:00 (retrieved 2 hours ago)

TAF SAAR 161700Z 1618/1718 05010KT 9999 SCT040 TX19/1618Z TN07/1710Z BECMG 1618/1620 11005KT CAVOK BECMG 1707/1710 4000 BR SCT010 PROB30 TEMPO 1710/1714 1000 BCFG BECMG 1714/1716 36010KT CAVOK